createdAt,value
2017-09-29T00:00:57.317Z,61
2017-09-29T00:02:05.411Z,61
2017-09-29T00:03:13.523Z,61
2017-09-29T00:04:21.598Z,61
2017-09-29T00:05:29.679Z,61
2017-09-29T00:06:37.767Z,61
2017-09-29T00:07:45.852Z,61
2017-09-29T00:08:53.944Z,61
2017-09-29T00:10:02.023Z,60
2017-09-29T00:11:10.116Z,61
2017-09-29T00:12:18.200Z,60
2017-09-29T00:13:26.285Z,61
2017-09-29T00:14:34.373Z,61
2017-09-29T00:15:42.461Z,60
2017-09-29T00:16:50.546Z,61
2017-09-29T00:17:58.657Z,61
2017-09-29T00:19:06.721Z,61
2017-09-29T00:20:14.806Z,60
2017-09-29T00:21:22.895Z,60
2017-09-29T00:22:30.978Z,60
2017-09-29T00:23:39.066Z,60
2017-09-29T00:24:47.153Z,60
2017-09-29T00:25:55.244Z,60
2017-09-29T00:27:03.326Z,60
2017-09-29T00:28:11.416Z,60
2017-09-29T00:29:19.502Z,60
2017-09-29T00:30:27.594Z,60
2017-09-29T00:31:35.674Z,60
2017-09-29T00:32:43.761Z,60
2017-09-29T00:33:51.858Z,60
2017-09-29T00:34:59.938Z,60
2017-09-29T00:36:08.026Z,60
2017-09-29T00:37:16.112Z,60
2017-09-29T00:38:24.201Z,60
2017-09-29T00:39:32.287Z,60
2017-09-29T00:40:40.374Z,60
2017-09-29T00:41:48.458Z,60
2017-09-29T00:42:56.544Z,60
2017-09-29T00:44:04.635Z,60
2017-09-29T00:45:12.718Z,60
2017-09-29T00:46:20.807Z,60
2017-09-29T00:47:28.899Z,60
2017-09-29T00:48:36.981Z,60
2017-09-29T00:49:45.069Z,60
2017-09-29T00:50:53.157Z,60
2017-09-29T00:52:01.243Z,60
2017-09-29T00:53:09.328Z,60
2017-09-29T00:54:17.417Z,59
2017-09-29T00:55:25.503Z,60
2017-09-29T00:56:33.596Z,60
2017-09-29T00:57:41.737Z,60
2017-09-29T00:58:49.823Z,60
2017-09-29T00:59:57.910Z,60
2017-09-29T01:01:06.003Z,60
2017-09-29T01:02:14.084Z,60
2017-09-29T01:03:22.170Z,59
2017-09-29T01:04:30.259Z,60
2017-09-29T01:05:38.345Z,59
2017-09-29T01:06:46.431Z,59
2017-09-29T01:07:54.520Z,60
2017-09-29T01:09:02.607Z,60
2017-09-29T01:10:10.692Z,60
2017-09-29T01:11:18.777Z,59
2017-09-29T01:12:26.882Z,59
2017-09-29T01:13:34.963Z,60
2017-09-29T01:14:43.060Z,59
2017-09-29T01:15:51.156Z,59
2017-09-29T01:16:59.244Z,59
2017-09-29T01:18:07.332Z,59
2017-09-29T01:19:15.419Z,59
2017-09-29T01:20:23.733Z,59
2017-09-29T01:21:31.826Z,59
2017-09-29T01:22:39.907Z,59
2017-09-29T01:23:47.993Z,59
2017-09-29T01:24:56.082Z,59
2017-09-29T01:26:04.167Z,59
2017-09-29T01:27:12.256Z,60
2017-09-29T01:28:20.357Z,59
2017-09-29T01:29:28.440Z,59
2017-09-29T01:30:36.537Z,59
2017-09-29T01:31:44.631Z,59
2017-09-29T01:32:52.713Z,59
2017-09-29T01:34:00.800Z,59
2017-09-29T01:35:08.887Z,59
2017-09-29T01:36:16.975Z,59
2017-09-29T01:37:25.062Z,59
2017-09-29T01:38:33.151Z,59
2017-09-29T01:39:41.248Z,59
2017-09-29T01:40:49.334Z,59
2017-09-29T01:41:57.420Z,59
2017-09-29T01:43:05.508Z,59
2017-09-29T01:44:13.595Z,59
2017-09-29T01:45:21.682Z,59
2017-09-29T01:46:29.775Z,59
2017-09-29T01:47:37.856Z,59
2017-09-29T01:48:45.947Z,59
2017-09-29T01:49:54.030Z,59
2017-09-29T01:51:02.122Z,59
2017-09-29T01:52:10.204Z,59
2017-09-29T01:53:18.297Z,59
2017-09-29T01:54:26.382Z,59
2017-09-29T01:55:34.470Z,59
2017-09-29T01:56:42.559Z,59
2017-09-29T01:57:50.646Z,59
2017-09-29T01:58:58.733Z,59
2017-09-29T02:00:06.819Z,59
2017-09-29T02:01:14.905Z,59
2017-09-29T02:02:22.998Z,59
2017-09-29T02:03:31.081Z,59
2017-09-29T02:04:39.167Z,59
2017-09-29T02:05:47.254Z,59
2017-09-29T02:06:55.345Z,59
2017-09-29T02:08:03.429Z,59
2017-09-29T02:09:11.518Z,59
2017-09-29T02:10:19.606Z,59
2017-09-29T02:11:27.689Z,59
2017-09-29T02:12:35.780Z,59
2017-09-29T02:13:43.867Z,59
2017-09-29T02:14:51.959Z,59
2017-09-29T02:16:00.041Z,59
2017-09-29T02:17:08.128Z,59
2017-09-29T02:18:16.219Z,59
2017-09-29T02:19:24.302Z,59
2017-09-29T02:20:32.410Z,59
2017-09-29T02:21:40.497Z,59
2017-09-29T02:22:48.585Z,59
2017-09-29T02:23:56.673Z,59
2017-09-29T02:25:04.761Z,59
2017-09-29T02:26:12.846Z,59
2017-09-29T02:27:20.932Z,59
2017-09-29T02:28:29.020Z,59
2017-09-29T02:29:37.108Z,59
2017-09-29T02:30:45.195Z,59
2017-09-29T02:31:53.283Z,59
2017-09-29T02:33:01.436Z,59
2017-09-29T02:34:09.457Z,59
2017-09-29T02:35:17.545Z,59
2017-09-29T02:36:25.630Z,58
2017-09-29T02:37:33.724Z,58
2017-09-29T02:38:41.814Z,59
2017-09-29T02:39:49.907Z,59
2017-09-29T02:40:57.993Z,58
2017-09-29T02:42:06.082Z,58
2017-09-29T02:43:14.166Z,58
2017-09-29T02:44:22.254Z,58
2017-09-29T02:45:30.345Z,58
2017-09-29T02:46:38.431Z,58
2017-09-29T02:47:46.518Z,58
2017-09-29T02:48:54.604Z,58
2017-09-29T02:50:02.692Z,59
2017-09-29T02:51:10.778Z,59
2017-09-29T02:52:18.865Z,58
2017-09-29T02:53:26.952Z,59
2017-09-29T02:54:35.047Z,59
2017-09-29T02:55:43.124Z,58
2017-09-29T02:56:51.214Z,58
2017-09-29T02:57:59.315Z,58
2017-09-29T02:59:07.401Z,58
2017-09-29T03:00:15.529Z,58
2017-09-29T03:01:23.579Z,58
2017-09-29T03:02:31.674Z,58
2017-09-29T03:03:39.763Z,58
2017-09-29T03:04:47.850Z,58
2017-09-29T03:05:55.935Z,58
2017-09-29T03:07:04.023Z,58
2017-09-29T03:08:12.114Z,58
2017-09-29T03:09:20.204Z,58
2017-09-29T03:10:28.285Z,58
2017-09-29T03:11:36.373Z,58
2017-09-29T03:12:44.462Z,58
2017-09-29T03:13:52.547Z,58
2017-09-29T03:15:00.631Z,58
2017-09-29T03:16:08.736Z,58
2017-09-29T03:17:16.827Z,58
2017-09-29T03:18:24.911Z,59
2017-09-29T03:19:33.000Z,59
2017-09-29T03:20:41.085Z,58
2017-09-29T03:21:49.170Z,59
2017-09-29T03:22:57.258Z,58
2017-09-29T03:24:05.344Z,58
2017-09-29T03:25:13.431Z,58
2017-09-29T03:26:21.520Z,58
2017-09-29T03:27:29.620Z,58
2017-09-29T03:28:37.694Z,58
2017-09-29T03:29:45.840Z,58
2017-09-29T03:30:53.869Z,58
2017-09-29T03:32:01.959Z,59
2017-09-29T03:33:10.042Z,58
2017-09-29T03:34:18.127Z,58
2017-09-29T03:35:26.215Z,58
2017-09-29T03:36:34.308Z,58
2017-09-29T03:37:42.391Z,58
2017-09-29T03:38:50.479Z,58
2017-09-29T03:39:58.566Z,58
2017-09-29T03:41:06.653Z,58
2017-09-29T03:42:14.739Z,58
2017-09-29T03:43:22.844Z,58
2017-09-29T03:44:30.940Z,58
2017-09-29T03:45:39.028Z,58
2017-09-29T03:46:47.114Z,58
2017-09-29T03:47:55.206Z,58
2017-09-29T03:49:03.286Z,58
2017-09-29T03:50:11.379Z,58
2017-09-29T03:51:19.463Z,58
2017-09-29T03:52:27.555Z,58
2017-09-29T03:53:35.638Z,58
2017-09-29T03:54:43.733Z,58
2017-09-29T03:55:51.820Z,58
2017-09-29T03:56:59.906Z,58
2017-09-29T03:58:07.993Z,58
2017-09-29T03:59:16.082Z,58
2017-09-29T04:00:24.170Z,58
2017-09-29T04:01:32.258Z,58
2017-09-29T04:02:40.346Z,58
2017-09-29T04:03:48.432Z,58
2017-09-29T04:04:56.520Z,58
2017-09-29T04:06:04.894Z,58
2017-09-29T04:07:12.979Z,58
2017-09-29T04:08:21.066Z,59
2017-09-29T04:09:29.150Z,58
2017-09-29T04:10:37.240Z,58
2017-09-29T04:11:45.336Z,58
2017-09-29T04:12:53.426Z,58
2017-09-29T04:14:01.509Z,58
2017-09-29T04:15:09.594Z,58
2017-09-29T04:16:17.695Z,58
2017-09-29T04:17:25.771Z,58
2017-09-29T04:18:33.865Z,58
2017-09-29T04:19:41.981Z,58
2017-09-29T04:20:50.047Z,58
2017-09-29T04:21:58.128Z,58
2017-09-29T04:23:06.213Z,58
2017-09-29T04:24:14.302Z,58
2017-09-29T04:25:22.390Z,58
2017-09-29T04:26:30.476Z,58
2017-09-29T04:27:38.564Z,58
2017-09-29T04:28:46.707Z,58
2017-09-29T04:29:54.737Z,58
2017-09-29T04:31:02.823Z,58
2017-09-29T04:32:10.912Z,58
2017-09-29T04:33:18.999Z,58
2017-09-29T04:34:27.082Z,58
2017-09-29T04:35:35.171Z,58
2017-09-29T04:36:43.259Z,58
2017-09-29T04:37:51.343Z,58
2017-09-29T04:38:59.434Z,58
2017-09-29T04:40:07.519Z,58
2017-09-29T04:41:15.608Z,58
2017-09-29T04:42:23.693Z,58
2017-09-29T04:43:31.780Z,58
2017-09-29T04:44:39.865Z,58
2017-09-29T04:45:47.953Z,58
2017-09-29T04:46:56.041Z,58
2017-09-29T04:48:04.135Z,58
2017-09-29T04:49:12.224Z,58
2017-09-29T04:50:20.311Z,58
2017-09-29T04:51:28.417Z,58
2017-09-29T04:52:36.483Z,58
2017-09-29T04:53:44.571Z,58
2017-09-29T04:54:52.662Z,58
2017-09-29T04:56:00.746Z,58
2017-09-29T04:57:08.834Z,58
2017-09-29T04:58:16.920Z,58
2017-09-29T04:59:25.006Z,58
2017-09-29T05:00:33.094Z,58
2017-09-29T05:01:41.193Z,58
2017-09-29T05:02:49.266Z,58
2017-09-29T05:03:57.355Z,58
2017-09-29T05:05:05.452Z,58
2017-09-29T05:06:13.529Z,58
2017-09-29T05:07:21.616Z,59
2017-09-29T05:08:29.710Z,59
2017-09-29T05:09:37.789Z,59
2017-09-29T05:10:45.879Z,59
2017-09-29T05:11:53.961Z,59
2017-09-29T05:13:02.049Z,59
2017-09-29T05:14:10.136Z,59
2017-09-29T05:15:18.224Z,59
2017-09-29T05:16:26.310Z,59
2017-09-29T05:17:34.397Z,59
2017-09-29T05:18:42.482Z,59
2017-09-29T05:19:50.568Z,59
2017-09-29T05:20:58.655Z,59
2017-09-29T05:22:06.747Z,59
2017-09-29T05:23:14.830Z,59
2017-09-29T05:24:22.919Z,59
2017-09-29T05:25:31.004Z,59
2017-09-29T05:26:39.090Z,59
2017-09-29T05:27:47.177Z,59
2017-09-29T05:28:55.267Z,59
2017-09-29T05:30:03.351Z,59
2017-09-29T05:31:11.438Z,59
2017-09-29T05:32:19.523Z,59
2017-09-29T05:33:27.612Z,59
2017-09-29T05:34:35.699Z,59
2017-09-29T05:35:43.786Z,59
2017-09-29T05:36:51.873Z,59
2017-09-29T05:37:59.962Z,59
2017-09-29T05:39:08.047Z,59
2017-09-29T05:40:16.138Z,59
2017-09-29T05:41:24.273Z,59
2017-09-29T05:42:32.320Z,59
2017-09-29T05:43:40.409Z,59
2017-09-29T05:44:48.491Z,59
2017-09-29T05:45:56.858Z,59
2017-09-29T05:47:04.689Z,59
2017-09-29T05:48:12.782Z,59
2017-09-29T05:49:20.863Z,59
2017-09-29T05:50:28.951Z,59
2017-09-29T05:51:37.045Z,59
2017-09-29T05:52:45.126Z,59
2017-09-29T05:53:53.211Z,59
2017-09-29T05:55:01.298Z,59
2017-09-29T05:56:09.394Z,59
2017-09-29T05:57:17.534Z,59
2017-09-29T05:58:25.904Z,59
2017-09-29T05:59:33.652Z,59
2017-09-29T06:00:41.735Z,59
2017-09-29T06:01:49.820Z,59
2017-09-29T06:02:57.970Z,59
2017-09-29T06:04:05.997Z,59
2017-09-29T06:05:14.129Z,59
2017-09-29T06:06:22.225Z,59
2017-09-29T06:07:30.269Z,59
2017-09-29T06:08:38.349Z,59
2017-09-29T06:09:46.432Z,59
2017-09-29T06:10:54.522Z,59
2017-09-29T06:12:02.610Z,59
2017-09-29T06:13:10.703Z,59
2017-09-29T06:14:18.795Z,59
2017-09-29T06:15:26.881Z,59
2017-09-29T06:16:34.966Z,59
2017-09-29T06:17:43.058Z,59
2017-09-29T06:18:51.140Z,59
2017-09-29T06:19:59.226Z,59
2017-09-29T06:21:07.314Z,59
2017-09-29T06:22:15.405Z,59
2017-09-29T06:23:23.697Z,59
2017-09-29T06:24:31.571Z,59
2017-09-29T06:25:39.782Z,59
2017-09-29T06:26:47.819Z,59
2017-09-29T06:27:55.834Z,59
2017-09-29T06:29:03.920Z,59
2017-09-29T06:30:12.006Z,59
2017-09-29T06:31:20.094Z,59
2017-09-29T06:32:28.180Z,59
2017-09-29T06:33:36.267Z,59
2017-09-29T06:34:44.360Z,59
2017-09-29T06:35:52.441Z,59
2017-09-29T06:37:00.526Z,59
2017-09-29T06:38:08.615Z,59
2017-09-29T06:39:16.708Z,59
2017-09-29T06:40:24.878Z,59
2017-09-29T06:41:32.882Z,59
2017-09-29T06:42:40.970Z,59
2017-09-29T06:43:49.056Z,59
2017-09-29T06:44:57.145Z,59
2017-09-29T06:46:05.226Z,59
2017-09-29T06:47:13.318Z,59
2017-09-29T06:48:21.404Z,59
2017-09-29T06:49:29.488Z,59
2017-09-29T06:50:37.574Z,59
2017-09-29T06:51:45.663Z,59
2017-09-29T06:52:53.758Z,59
2017-09-29T06:54:01.835Z,59
2017-09-29T06:55:09.922Z,59
2017-09-29T06:56:18.005Z,59
2017-09-29T06:57:26.101Z,59
2017-09-29T06:58:34.206Z,59
2017-09-29T06:59:42.688Z,59
2017-09-29T07:00:50.362Z,59
2017-09-29T07:01:58.501Z,59
2017-09-29T07:03:06.533Z,59
2017-09-29T07:04:14.620Z,59
2017-09-29T07:05:22.708Z,59
2017-09-29T07:06:30.797Z,59
2017-09-29T07:07:38.884Z,59
2017-09-29T07:08:47.968Z,59
2017-09-29T07:09:55.060Z,59
2017-09-29T07:11:03.144Z,59
2017-09-29T07:12:11.232Z,59
2017-09-29T07:13:19.318Z,59
2017-09-29T07:14:27.402Z,59
2017-09-29T07:15:35.491Z,59
2017-09-29T07:16:43.586Z,59
2017-09-29T07:17:51.674Z,59
2017-09-29T07:18:59.759Z,59
2017-09-29T07:20:07.874Z,59
2017-09-29T07:21:15.930Z,59
2017-09-29T07:22:24.021Z,59
2017-09-29T07:23:32.105Z,59
2017-09-29T07:24:40.209Z,59
2017-09-29T07:25:48.277Z,59
2017-09-29T07:26:56.364Z,59
2017-09-29T07:28:04.453Z,59
2017-09-29T07:29:12.538Z,59
2017-09-29T07:30:20.623Z,59
2017-09-29T07:31:28.719Z,60
2017-09-29T07:32:36.805Z,59
2017-09-29T07:33:44.889Z,59
2017-09-29T07:34:52.970Z,59
2017-09-29T07:36:01.058Z,59
2017-09-29T07:37:09.145Z,59
2017-09-29T07:38:17.231Z,59
2017-09-29T07:39:25.316Z,59
2017-09-29T07:40:33.475Z,59
2017-09-29T07:41:41.489Z,59
2017-09-29T07:42:49.576Z,59
2017-09-29T07:43:57.663Z,59
2017-09-29T07:45:05.750Z,59
2017-09-29T07:46:13.857Z,59
2017-09-29T09:09:05.929Z,60
2017-09-29T09:10:14.127Z,60
2017-09-29T09:11:22.089Z,60
2017-09-29T09:12:30.257Z,60
2017-09-29T09:13:38.433Z,60
2017-09-29T09:14:46.926Z,60
2017-09-29T09:15:55.065Z,60
2017-09-29T09:17:03.095Z,60
2017-09-29T09:18:11.177Z,60
2017-09-29T09:19:19.260Z,60
2017-09-29T09:20:27.420Z,60
2017-09-29T09:21:35.430Z,60
2017-09-29T09:22:43.533Z,60
2017-09-29T09:23:51.596Z,60
2017-09-29T09:24:59.743Z,60
2017-09-29T09:26:07.767Z,60
2017-09-29T09:27:16.422Z,60
2017-09-29T09:28:24.402Z,60
2017-09-29T09:29:32.029Z,60
2017-09-29T09:30:40.109Z,60
2017-09-29T09:31:48.224Z,60
2017-09-29T09:32:56.709Z,60
2017-09-29T09:34:04.719Z,60
2017-09-29T09:35:12.802Z,60
2017-09-29T09:36:20.888Z,60
2017-09-29T09:37:29.073Z,60
2017-09-29T09:38:37.709Z,60
2017-09-29T09:39:45.205Z,60
2017-09-29T09:40:53.230Z,60
2017-09-29T09:42:01.389Z,60
2017-09-29T09:43:09.506Z,60
2017-09-29T09:44:17.489Z,60
2017-09-29T09:45:25.577Z,60
2017-09-29T09:46:33.805Z,60
2017-09-29T09:47:41.794Z,60
2017-09-29T09:48:49.921Z,60
2017-09-29T09:49:57.921Z,60
2017-09-29T09:51:06.068Z,60
2017-09-29T09:52:14.093Z,60
2017-09-29T09:53:22.187Z,60
2017-09-29T09:54:30.318Z,60
2017-09-29T09:55:38.402Z,60
2017-09-29T09:56:46.490Z,60
2017-09-29T09:57:54.574Z,59
2017-09-29T09:59:02.664Z,60
2017-09-29T10:00:10.756Z,60
2017-09-29T10:01:18.842Z,60
2017-09-29T10:02:26.927Z,60
2017-09-29T10:03:35.017Z,60
2017-09-29T10:04:43.102Z,61
2017-09-29T10:05:51.187Z,61
2017-09-29T10:06:59.274Z,60
2017-09-29T10:08:07.360Z,61
2017-09-29T10:09:15.447Z,61
2017-09-29T10:10:23.533Z,60
2017-09-29T10:11:31.643Z,61
2017-09-29T10:12:39.708Z,60
2017-09-29T10:13:47.796Z,60
2017-09-29T10:14:55.884Z,60
2017-09-29T10:16:03.969Z,60
2017-09-29T10:17:12.058Z,60
2017-09-29T10:18:20.156Z,60
2017-09-29T10:19:28.226Z,60
2017-09-29T10:20:36.317Z,60
2017-09-29T10:21:44.400Z,61
2017-09-29T10:22:52.485Z,61
2017-09-29T10:24:00.578Z,61
2017-09-29T10:25:08.660Z,61
2017-09-29T10:26:16.746Z,61
2017-09-29T10:27:24.830Z,60
2017-09-29T10:28:32.930Z,60
2017-09-29T10:29:41.016Z,60
2017-09-29T10:30:49.111Z,60
2017-09-29T10:31:57.201Z,60
2017-09-29T10:33:05.326Z,60
2017-09-29T10:34:13.375Z,60
2017-09-29T10:35:21.462Z,61
2017-09-29T10:36:29.551Z,60
2017-09-29T10:37:37.636Z,60
2017-09-29T10:38:45.724Z,61
2017-09-29T10:39:53.840Z,61
2017-09-29T10:41:01.931Z,60
2017-09-29T10:42:10.014Z,61
2017-09-29T10:43:18.111Z,61
2017-09-29T10:44:26.197Z,61
2017-09-29T10:45:34.289Z,61
2017-09-29T10:46:42.371Z,61
2017-09-29T10:47:50.458Z,61
2017-09-29T10:48:58.543Z,61
2017-09-29T10:50:06.650Z,62
2017-09-29T10:51:14.717Z,62
2017-09-29T10:52:22.804Z,62
2017-09-29T10:53:30.891Z,62
2017-09-29T10:54:38.981Z,62
2017-09-29T10:55:47.070Z,63
2017-09-29T10:56:55.158Z,63
2017-09-29T10:58:03.241Z,62
2017-09-29T10:59:11.347Z,63
2017-09-29T11:00:19.414Z,62
2017-09-29T11:01:27.503Z,64
2017-09-29T11:02:35.588Z,64
2017-09-29T11:03:43.676Z,63
2017-09-29T11:04:51.761Z,63
2017-09-29T11:05:59.849Z,63
2017-09-29T11:07:07.933Z,63
2017-09-29T11:08:16.023Z,63
2017-09-29T11:09:24.111Z,63
2017-09-29T11:10:32.193Z,63
2017-09-29T11:11:40.278Z,63
2017-09-29T11:12:48.373Z,63
2017-09-29T11:13:56.454Z,63
2017-09-29T11:15:04.539Z,63
2017-09-29T11:16:12.625Z,64
2017-09-29T11:17:20.727Z,64
2017-09-29T11:18:28.806Z,64
2017-09-29T11:19:36.893Z,64
2017-09-29T11:20:44.978Z,64
2017-09-29T11:21:53.065Z,64
2017-09-29T11:23:01.157Z,64
2017-09-29T11:24:09.239Z,65
2017-09-29T11:25:17.326Z,64
2017-09-29T11:26:25.413Z,64
2017-09-29T11:27:33.503Z,64
2017-09-29T11:28:41.589Z,64
2017-09-29T11:29:49.677Z,64
2017-09-29T11:30:57.782Z,63
2017-09-29T11:32:05.866Z,63
2017-09-29T11:33:13.951Z,63
2017-09-29T11:34:22.040Z,63
2017-09-29T11:35:30.124Z,64
2017-09-29T11:36:38.213Z,63
2017-09-29T11:37:46.294Z,64
2017-09-29T11:38:54.383Z,64
2017-09-29T11:40:02.470Z,64
2017-09-29T11:41:10.560Z,64
2017-09-29T11:42:18.653Z,64
2017-09-29T11:43:26.732Z,64
2017-09-29T11:44:34.819Z,64
2017-09-29T11:45:42.904Z,64
2017-09-29T11:46:50.992Z,64
2017-09-29T11:47:59.077Z,63
2017-09-29T11:49:07.166Z,64
2017-09-29T11:50:15.253Z,64
2017-09-29T11:51:23.341Z,64
2017-09-29T11:52:31.428Z,64
2017-09-29T11:53:39.509Z,64
2017-09-29T11:54:47.597Z,65
2017-09-29T11:55:55.684Z,64
2017-09-29T11:57:03.770Z,65
2017-09-29T11:58:11.860Z,65
2017-09-29T11:59:19.995Z,64
2017-09-29T12:00:28.032Z,64
2017-09-29T12:01:36.117Z,65
2017-09-29T12:02:44.201Z,65
2017-09-29T12:03:52.289Z,64
2017-09-29T12:05:00.397Z,64
2017-09-29T12:06:08.484Z,64
2017-09-29T12:07:16.572Z,64
2017-09-29T12:08:24.655Z,64
2017-09-29T12:09:32.747Z,64
2017-09-29T12:10:40.830Z,64
2017-09-29T12:11:48.916Z,64
2017-09-29T12:12:57.005Z,64
2017-09-29T12:14:05.090Z,64
2017-09-29T12:15:13.176Z,64
2017-09-29T12:16:21.262Z,64
2017-09-29T12:17:29.349Z,63
2017-09-29T12:18:37.436Z,64
2017-09-29T12:19:45.525Z,64
2017-09-29T12:20:53.674Z,63
2017-09-29T12:22:01.696Z,63
2017-09-29T12:23:09.787Z,63
2017-09-29T12:24:17.871Z,63
2017-09-29T12:25:25.957Z,63
2017-09-29T12:26:34.043Z,63
2017-09-29T12:27:42.128Z,63
2017-09-29T12:28:50.216Z,63
2017-09-29T12:29:58.303Z,63
2017-09-29T12:31:06.387Z,63
2017-09-29T12:32:14.483Z,63
2017-09-29T12:33:22.575Z,63
2017-09-29T12:34:30.661Z,63
2017-09-29T12:35:38.743Z,62
2017-09-29T12:36:46.832Z,62
2017-09-29T12:37:54.920Z,63
2017-09-29T12:39:03.007Z,63
2017-09-29T12:40:11.104Z,63
2017-09-29T12:41:19.187Z,63
2017-09-29T12:42:27.275Z,63
2017-09-29T12:43:35.361Z,63
2017-09-29T12:44:43.447Z,63
2017-09-29T12:45:51.535Z,63
2017-09-29T12:46:59.619Z,63
2017-09-29T12:48:07.709Z,63
2017-09-29T12:49:15.802Z,63
2017-09-29T12:50:23.886Z,63
2017-09-29T12:51:31.975Z,63
2017-09-29T12:52:40.055Z,62
2017-09-29T12:53:48.150Z,62
2017-09-29T12:54:56.237Z,62
2017-09-29T12:56:04.324Z,62
2017-09-29T12:57:12.413Z,62
2017-09-29T12:58:20.500Z,62
2017-09-29T12:59:28.587Z,62
2017-09-29T13:00:36.680Z,62
2017-09-29T13:01:44.765Z,62
2017-09-29T13:02:52.853Z,62
2017-09-29T13:04:00.940Z,62
2017-09-29T13:05:09.030Z,62
2017-09-29T13:06:17.118Z,62
2017-09-29T13:07:25.221Z,62
2017-09-29T13:08:33.293Z,62
2017-09-29T13:09:41.376Z,62
2017-09-29T13:10:49.461Z,62
2017-09-29T13:11:57.549Z,62
2017-09-29T13:13:05.652Z,62
2017-09-29T13:14:13.738Z,62
2017-09-29T13:15:21.829Z,62
2017-09-29T13:16:29.909Z,62
2017-09-29T13:17:38.173Z,62
2017-09-29T13:18:46.255Z,62
2017-09-29T13:19:54.343Z,62
2017-09-29T13:21:02.430Z,62
2017-09-29T13:22:10.599Z,62
2017-09-29T13:23:18.604Z,62
2017-09-29T13:24:26.690Z,62
2017-09-29T13:25:34.781Z,62
2017-09-29T13:26:42.868Z,62
2017-09-29T13:27:50.952Z,62
2017-09-29T13:28:59.038Z,62
2017-09-29T13:30:07.147Z,62
2017-09-29T13:31:15.236Z,62
2017-09-29T13:32:23.324Z,62
2017-09-29T13:33:31.409Z,62
2017-09-29T13:34:39.500Z,62
2017-09-29T13:35:47.583Z,62
2017-09-29T13:36:55.671Z,62
2017-09-29T13:38:03.762Z,62
2017-09-29T13:39:12.841Z,62
2017-09-29T13:40:19.927Z,62
2017-09-29T13:41:28.013Z,62
2017-09-29T13:42:36.105Z,62
2017-09-29T13:43:44.190Z,62
2017-09-29T13:44:52.278Z,62
2017-09-29T13:46:00.363Z,62
2017-09-29T13:47:08.456Z,62
2017-09-29T13:48:16.540Z,62
2017-09-29T13:49:24.640Z,62
2017-09-29T13:50:32.730Z,62
2017-09-29T13:51:40.815Z,62
2017-09-29T13:52:48.907Z,62
2017-09-29T13:53:56.987Z,62
2017-09-29T13:55:05.076Z,62
2017-09-29T13:56:13.164Z,62
2017-09-29T13:57:21.249Z,62
2017-09-29T13:58:29.336Z,62
2017-09-29T13:59:37.424Z,61
2017-09-29T14:00:45.513Z,61
2017-09-29T14:01:53.598Z,61
2017-09-29T14:03:01.704Z,61
2017-09-29T14:04:09.780Z,61
2017-09-29T14:05:17.858Z,61
2017-09-29T14:06:25.946Z,61
2017-09-29T14:07:34.033Z,61
2017-09-29T14:08:42.158Z,61
2017-09-29T14:09:50.207Z,61
2017-09-29T14:10:58.294Z,61
2017-09-29T14:12:06.381Z,61
2017-09-29T14:13:14.468Z,61
2017-09-29T14:14:22.554Z,62
2017-09-29T14:15:30.641Z,62
2017-09-29T14:16:38.726Z,62
2017-09-29T14:17:46.814Z,62
2017-09-29T14:18:54.901Z,62
2017-09-29T14:20:03.267Z,62
2017-09-29T14:21:11.078Z,62
2017-09-29T14:22:19.177Z,62
2017-09-29T14:23:27.250Z,61
2017-09-29T14:24:35.336Z,62
2017-09-29T14:25:43.429Z,62
2017-09-29T14:26:51.509Z,62
2017-09-29T14:27:59.595Z,62
2017-09-29T14:29:07.684Z,62
2017-09-29T14:30:15.772Z,62
2017-09-29T14:31:23.857Z,62
2017-09-29T14:32:31.970Z,62
2017-09-29T14:33:40.031Z,62
2017-09-29T14:34:48.134Z,61
2017-09-29T14:35:56.219Z,61
2017-09-29T14:37:04.303Z,62
2017-09-29T14:38:12.391Z,61
2017-09-29T14:39:20.479Z,62
2017-09-29T14:40:28.563Z,61
2017-09-29T14:41:36.652Z,62
2017-09-29T14:42:44.840Z,62
2017-09-29T14:43:52.924Z,62
2017-09-29T14:45:01.007Z,62
2017-09-29T14:46:09.099Z,61
2017-09-29T14:47:17.184Z,62
2017-09-29T14:48:25.272Z,62
2017-09-29T14:49:33.357Z,62
2017-09-29T14:50:41.447Z,61
2017-09-29T14:51:49.532Z,61
2017-09-29T14:52:57.618Z,62
2017-09-29T14:54:05.706Z,61
2017-09-29T14:55:13.795Z,61
2017-09-29T14:56:21.882Z,62
2017-09-29T14:57:29.967Z,61
2017-09-29T14:58:38.188Z,61
2017-09-29T14:59:46.275Z,61
2017-09-29T15:00:54.367Z,61
2017-09-29T15:02:02.449Z,62
2017-09-29T15:03:10.537Z,61
2017-09-29T15:04:18.625Z,61
2017-09-29T15:05:26.711Z,61
2017-09-29T15:06:34.797Z,62
2017-09-29T15:07:42.884Z,61
2017-09-29T15:08:50.971Z,62
2017-09-29T15:09:59.065Z,62
2017-09-29T15:11:07.146Z,62
2017-09-29T15:12:15.231Z,62
2017-09-29T15:13:23.323Z,62
2017-09-29T15:14:31.409Z,61
2017-09-29T15:15:39.493Z,62
2017-09-29T15:16:47.577Z,61
2017-09-29T15:17:55.668Z,61
2017-09-29T15:19:03.751Z,62
2017-09-29T15:20:11.839Z,62
2017-09-29T15:21:19.925Z,62
2017-09-29T15:22:28.013Z,62
2017-09-29T15:23:37.097Z,62
2017-09-29T15:24:44.189Z,62
2017-09-29T15:25:52.272Z,62
2017-09-29T15:27:00.361Z,62
2017-09-29T15:28:08.446Z,62
2017-09-29T15:29:16.530Z,63
2017-09-29T15:30:24.618Z,63
2017-09-29T15:31:32.712Z,63
2017-09-29T15:32:40.792Z,64
2017-09-29T15:33:48.882Z,63
2017-09-29T15:34:56.980Z,64
2017-09-29T15:36:05.062Z,64
2017-09-29T15:37:13.152Z,64
2017-09-29T15:38:21.237Z,64
2017-09-29T15:39:29.419Z,64
2017-09-29T15:40:37.507Z,64
2017-09-29T15:41:45.592Z,64
2017-09-29T15:42:53.677Z,64
2017-09-29T15:44:01.764Z,64
2017-09-29T15:45:09.851Z,64
2017-09-29T15:46:17.940Z,64
2017-09-29T15:47:26.025Z,64
2017-09-29T15:48:34.110Z,64
2017-09-29T15:49:42.199Z,63
2017-09-29T15:50:50.286Z,63
2017-09-29T15:51:58.374Z,63
2017-09-29T15:53:06.457Z,64
2017-09-29T15:54:14.545Z,64
2017-09-29T15:55:22.631Z,64
2017-09-29T15:56:30.727Z,64
2017-09-29T15:57:38.818Z,64
2017-09-29T15:58:46.902Z,64
2017-09-29T15:59:54.986Z,64
2017-09-29T16:01:03.073Z,64
2017-09-29T16:02:11.161Z,64
2017-09-29T16:03:19.245Z,64
2017-09-29T16:04:27.336Z,64
2017-09-29T16:05:35.419Z,64
2017-09-29T16:06:43.505Z,64
2017-09-29T16:07:51.597Z,63
2017-09-29T16:08:59.679Z,64
2017-09-29T16:10:07.766Z,64
2017-09-29T16:11:15.861Z,64
2017-09-29T16:12:23.946Z,64
2017-09-29T16:13:32.032Z,64
2017-09-29T16:14:40.119Z,64
2017-09-29T16:15:48.213Z,64
2017-09-29T16:16:56.293Z,64
2017-09-29T16:18:04.379Z,64
2017-09-29T16:19:12.462Z,64
2017-09-29T16:20:20.560Z,64
2017-09-29T16:21:28.639Z,64
2017-09-29T16:22:36.726Z,64
2017-09-29T16:23:44.814Z,64
2017-09-29T16:24:52.899Z,64
2017-09-29T16:26:00.985Z,64
2017-09-29T16:27:09.071Z,64
2017-09-29T16:28:17.162Z,64
2017-09-29T16:29:25.244Z,64
2017-09-29T16:30:33.330Z,64
2017-09-29T16:31:41.422Z,64
2017-09-29T16:32:49.516Z,64
2017-09-29T16:33:57.622Z,64
2017-09-29T16:35:05.729Z,63
2017-09-29T16:36:13.814Z,63
2017-09-29T16:37:21.911Z,63
2017-09-29T16:38:29.999Z,63
2017-09-29T16:39:38.104Z,64
2017-09-29T16:40:46.188Z,64
2017-09-29T16:41:54.278Z,63
2017-09-29T16:43:02.369Z,63
2017-09-29T16:44:10.455Z,64
2017-09-29T16:45:18.544Z,64
2017-09-29T16:46:26.629Z,63
2017-09-29T16:47:34.711Z,63
2017-09-29T16:48:42.801Z,63
2017-09-29T16:49:50.887Z,63
2017-09-29T16:50:58.972Z,63
2017-09-29T16:52:07.059Z,63
2017-09-29T16:53:15.148Z,63
2017-09-29T16:54:23.234Z,63
2017-09-29T16:55:31.321Z,63
2017-09-29T16:56:39.405Z,63
2017-09-29T16:57:47.503Z,63
2017-09-29T16:58:55.576Z,63
2017-09-29T17:00:03.664Z,63
2017-09-29T17:01:11.761Z,63
2017-09-29T17:02:19.850Z,63
2017-09-29T17:03:27.937Z,63
2017-09-29T17:04:36.024Z,63
2017-09-29T17:05:44.115Z,63
2017-09-29T17:06:52.199Z,63
2017-09-29T17:08:00.281Z,63
2017-09-29T17:09:08.369Z,63
2017-09-29T17:10:16.456Z,63
2017-09-29T17:11:24.557Z,63
2017-09-29T17:12:32.644Z,63
2017-09-29T17:13:40.723Z,63
2017-09-29T17:14:48.885Z,63
2017-09-29T17:15:56.910Z,63
2017-09-29T17:17:04.997Z,63
2017-09-29T17:18:13.091Z,63
2017-09-29T17:19:21.177Z,63
2017-09-29T17:20:29.262Z,63
2017-09-29T17:21:37.349Z,63
2017-09-29T17:22:45.435Z,63
2017-09-29T17:23:53.521Z,63
2017-09-29T17:25:01.609Z,63
2017-09-29T17:26:09.693Z,63
2017-09-29T17:27:17.782Z,63
2017-09-29T17:28:25.874Z,63
2017-09-29T17:29:33.954Z,62
2017-09-29T17:30:42.041Z,63
2017-09-29T17:31:50.128Z,63
2017-09-29T17:32:58.214Z,63